createdAt,value
2022-10-01T00:02:56.445Z,1.80
2022-10-01T00:09:44.580Z,1.50
2022-10-01T00:15:55.738Z,1.52
2022-10-01T00:22:08.494Z,1.23
2022-10-01T00:28:19.092Z,1.35
2022-10-01T00:34:41.330Z,1.38
2022-10-01T00:40:46.860Z,1.63
2022-10-01T00:46:56.273Z,1.17
2022-10-01T00:53:03.387Z,1.00
2022-10-01T00:59:14.772Z,1.08
2022-10-01T01:05:32.016Z,1.30
2022-10-01T01:11:48.049Z,1.40
2022-10-01T01:17:58.939Z,0.93
2022-10-01T01:24:21.704Z,1.10
2022-10-01T01:30:44.615Z,0.80
2022-10-01T01:36:53.589Z,1.00
2022-10-01T01:42:58.900Z,1.40
2022-10-01T01:49:06.685Z,1.00
2022-10-01T01:55:12.492Z,0.82
2022-10-01T02:01:32.908Z,0.73
2022-10-01T02:08:27.126Z,0.75
2022-10-01T02:15:05.247Z,0.80
2022-10-01T02:22:02.628Z,1.00
2022-10-01T02:28:11.160Z,0.52
2022-10-01T02:34:33.882Z,0.80
2022-10-01T02:40:42.921Z,0.80
2022-10-01T02:46:49.832Z,1.00
2022-10-01T02:52:59.264Z,1.45
2022-10-01T02:59:04.200Z,1.33
2022-10-01T03:05:18.034Z,1.13
2022-10-01T03:11:23.664Z,1.00
2022-10-01T03:31:47.327Z,1.02
2022-10-01T03:46:05.431Z,1.10
2022-10-01T04:27:22.227Z,1.27
2022-10-01T04:48:02.913Z,1.73
2022-10-01T04:54:56.049Z,2.10
2022-10-01T05:29:59.710Z,1.80
2022-10-01T05:36:39.845Z,2.30
2022-10-01T05:42:56.890Z,2.28
2022-10-01T05:49:02.523Z,2.05
2022-10-01T05:55:09.598Z,1.95
2022-10-01T06:01:13.494Z,1.70
2022-10-01T06:07:18.928Z,2.25
2022-10-01T06:13:23.171Z,1.77
2022-10-01T06:19:29.524Z,1.90
2022-10-01T06:25:35.366Z,1.55
2022-10-01T06:31:39.308Z,1.98
2022-10-01T06:37:42.781Z,2.17
2022-10-01T06:43:47.612Z,2.10
2022-10-01T06:49:51.219Z,1.85
2022-10-01T06:55:54.663Z,2.30
2022-10-01T07:01:59.597Z,2.78
2022-10-01T07:08:03.423Z,2.28
2022-10-01T07:14:09.953Z,2.75
2022-10-01T07:20:17.764Z,2.60
2022-10-01T07:26:21.353Z,2.13
2022-10-01T07:32:25.112Z,2.50
2022-10-01T07:38:32.020Z,2.72
2022-10-01T07:44:35.456Z,2.47
2022-10-01T07:50:38.908Z,2.05
2022-10-01T07:56:43.688Z,2.88
2022-10-01T08:02:50.759Z,1.90
2022-10-01T08:08:54.211Z,2.28
2022-10-01T08:14:59.081Z,1.77
2022-10-01T08:21:03.202Z,2.20
2022-10-01T08:27:06.653Z,2.28
2022-10-01T08:33:12.116Z,2.25
2022-10-01T08:39:18.312Z,2.35
2022-10-01T08:45:23.894Z,2.00
2022-10-01T08:51:31.068Z,1.50
2022-10-01T08:57:38.660Z,2.20
2022-10-01T09:03:42.283Z,2.20
2022-10-01T09:09:50.857Z,2.20
2022-10-01T09:16:00.272Z,2.75
2022-10-01T09:22:07.993Z,2.40
2022-10-01T09:28:15.400Z,2.25
2022-10-01T09:34:31.108Z,1.67
2022-10-01T09:40:43.486Z,2.30
2022-10-01T09:46:49.210Z,2.28
2022-10-01T09:52:53.219Z,2.53
2022-10-01T09:59:00.484Z,2.25
2022-10-01T10:05:06.536Z,1.80
2022-10-01T10:11:11.294Z,2.45
2022-10-01T10:17:17.230Z,2.90
2022-10-01T10:23:22.767Z,3.20
2022-10-01T10:29:31.155Z,2.40
2022-10-01T10:35:37.177Z,3.00
2022-10-01T10:41:45.907Z,1.92
2022-10-01T10:48:15.162Z,2.22
2022-10-01T10:54:23.408Z,2.25
2022-10-01T11:00:29.759Z,2.45
2022-10-01T11:06:33.508Z,2.45
2022-10-01T11:12:48.136Z,2.80
2022-10-01T11:19:05.669Z,2.58
2022-10-01T11:25:21.270Z,2.22
2022-10-01T11:31:30.690Z,2.03
2022-10-01T11:37:42.933Z,2.42
2022-10-01T11:43:47.832Z,2.67
2022-10-01T11:49:55.015Z,2.13
2022-10-01T11:56:19.182Z,2.83
2022-10-01T12:02:28.292Z,2.40
2022-10-01T12:08:33.578Z,2.40
2022-10-01T12:14:43.036Z,2.38
2022-10-01T12:20:48.646Z,2.03
2022-10-01T12:26:56.729Z,1.67
2022-10-01T12:33:08.852Z,1.50
2022-10-01T12:39:19.482Z,1.67
2022-10-01T12:45:27.391Z,1.95
2022-10-01T12:51:38.955Z,1.90
2022-10-01T12:57:46.293Z,1.70
2022-10-01T13:04:04.290Z,1.83
2022-10-01T13:10:16.258Z,1.40
2022-10-01T13:16:24.872Z,1.70
2022-10-01T13:22:33.543Z,1.55
2022-10-01T13:28:46.641Z,1.27
2022-10-01T13:34:50.060Z,1.35
2022-10-01T13:40:58.503Z,1.42
2022-10-01T13:47:06.166Z,1.23
2022-10-01T13:53:15.838Z,1.40
2022-10-01T13:59:28.723Z,1.50
2022-10-01T14:05:36.674Z,1.00
2022-10-01T14:11:57.982Z,1.60
2022-10-01T14:18:03.146Z,1.60
2022-10-01T14:24:13.336Z,1.30
2022-10-01T14:30:18.000Z,1.15
2022-10-01T14:36:29.749Z,1.77
2022-10-01T14:42:34.600Z,1.88
2022-10-01T14:48:39.180Z,2.20
2022-10-01T14:54:44.711Z,1.75
2022-10-01T15:00:52.492Z,1.75
2022-10-01T15:06:55.953Z,1.73
2022-10-01T15:12:59.311Z,1.80
2022-10-01T15:19:05.649Z,1.40
2022-10-01T15:25:09.464Z,1.95
2022-10-01T15:31:12.920Z,1.60
2022-10-01T15:37:19.916Z,1.70
2022-10-01T15:43:27.746Z,1.67
2022-10-01T15:49:31.261Z,1.50
2022-10-01T15:55:37.227Z,1.30
2022-10-01T16:01:41.659Z,1.48
2022-10-01T16:07:48.163Z,1.27
2022-10-01T16:13:54.885Z,1.85
2022-10-01T16:19:59.166Z,1.67
2022-10-01T16:26:02.673Z,2.05
2022-10-01T16:32:07.425Z,1.50
2022-10-01T16:38:11.003Z,1.45
2022-10-01T16:44:15.825Z,1.63
2022-10-01T16:50:22.169Z,2.28
2022-10-01T16:56:27.341Z,2.17
2022-10-01T17:02:30.863Z,2.08
2022-10-01T17:08:35.761Z,2.53
2022-10-01T17:14:39.178Z,2.45
2022-10-01T17:20:42.522Z,2.17
2022-10-01T17:26:48.169Z,2.33
2022-10-01T17:32:51.953Z,2.40
2022-10-01T17:38:55.339Z,2.35
2022-10-01T17:45:00.145Z,2.95
2022-10-01T17:51:05.528Z,2.70
2022-10-01T17:57:10.809Z,3.58
2022-10-01T18:03:18.084Z,3.25
2022-10-01T18:09:21.655Z,3.33
2022-10-01T18:15:25.185Z,3.20
2022-10-01T18:21:30.237Z,2.95
2022-10-01T18:27:34.031Z,3.53
2022-10-01T18:33:37.966Z,3.33
2022-10-01T18:39:45.147Z,2.92
2022-10-01T18:45:53.028Z,3.30
2022-10-01T18:52:04.854Z,2.95
2022-10-01T18:58:18.232Z,3.25
2022-10-01T19:04:33.106Z,2.90
2022-10-01T19:10:40.682Z,3.08
2022-10-01T19:16:47.044Z,3.28
2022-10-01T19:22:58.864Z,2.92
2022-10-01T19:29:09.222Z,3.47
2022-10-01T19:35:20.358Z,3.30
2022-10-01T19:41:26.996Z,3.20
2022-10-01T19:47:33.961Z,3.15
2022-10-01T19:53:39.020Z,3.13
2022-10-01T19:59:42.538Z,3.40
2022-10-01T20:05:46.838Z,3.10
2022-10-01T20:11:56.343Z,3.10
2022-10-01T20:18:15.848Z,3.00
2022-10-01T20:24:28.896Z,3.22
2022-10-01T20:30:35.474Z,3.33
2022-10-01T20:36:43.045Z,2.50
2022-10-01T20:42:49.485Z,2.65
2022-10-01T20:49:00.066Z,3.58
2022-10-01T20:55:07.466Z,3.20
2022-10-01T21:01:15.819Z,3.55
2022-10-01T21:07:26.407Z,4.20
2022-10-01T21:13:37.208Z,4.10
2022-10-01T21:19:48.891Z,3.25
2022-10-01T21:26:00.475Z,3.50
2022-10-01T21:32:20.224Z,4.28
2022-10-01T21:38:31.697Z,3.47
2022-10-01T21:44:48.258Z,3.88
2022-10-01T21:50:53.973Z,2.80
2022-10-01T21:57:02.953Z,3.38
2022-10-01T22:03:12.625Z,3.30
2022-10-01T22:09:20.776Z,3.22
2022-10-01T22:15:27.581Z,3.58
2022-10-01T22:21:35.426Z,3.80
2022-10-01T22:27:44.200Z,3.45
2022-10-01T22:33:49.464Z,3.42
2022-10-01T22:40:02.577Z,3.95
2022-10-01T22:46:24.452Z,2.75
2022-10-01T22:52:32.351Z,3.63
2022-10-01T22:58:44.109Z,3.30
2022-10-01T23:04:52.994Z,3.70
2022-10-01T23:11:03.582Z,3.45
2022-10-01T23:17:28.865Z,3.17
2022-10-01T23:23:32.995Z,3.50
2022-10-01T23:29:51.184Z,3.40
2022-10-01T23:35:58.568Z,2.72
2022-10-01T23:42:05.368Z,3.42
2022-10-01T23:48:13.171Z,3.42
2022-10-01T23:54:29.511Z,3.38
